Time;durP1;ratioP1;P1;durP2;ratioP2;P2;SDS_P1;SDS_P2;PMS_P1;PMS_P2;Temp;Humidity;BMP_temperature;BMP_pressure;BME280_temperature;BME280_humidity;BME280_pressure;Samples;Min_cycle;Max_cycle;Signal;HPM_P1;HPM_P2
2022/12/30 00:01:44;;;;;;;16.17;3.88;;;;;;;;;;5033832;28;20050;-78
2022/12/30 00:04:10;;;;;;;14.60;3.75;;;;;;;;;;5016206;28;20399;-77
2022/12/30 00:06:36;;;;;;;12.98;3.63;;;;;;;;;;5034235;28;20512;-78
2022/12/30 00:09:03;;;;;;;11.80;3.63;;;;;;;;;;5016186;28;20377;-78
2022/12/30 00:11:30;;;;;;;11.02;2.85;;;;;;;;;;5033596;28;20056;-78
2022/12/30 00:34:06;;;;;;;20.35;3.90;;;;;;;;;;5033741;28;20049;-78
2022/12/30 00:36:32;;;;;;;15.48;3.72;;;;;;;;;;5033203;28;20046;-78
2022/12/30 00:38:58;;;;;;;13.32;4.07;;;;;;;;;;5033797;28;20048;-77
2022/12/30 00:44:09;;;;;;;16.73;3.53;;;;;;;;;;5033549;28;20045;-77
2022/12/30 00:46:36;;;;;;;16.40;4.07;;;;;;;;;;5033058;28;20581;-78
2022/12/30 00:57:17;;;;;;;19.05;4.00;;;;;;;;;;5033350;28;20042;-79
2022/12/30 00:59:43;;;;;;;20.50;3.72;;;;;;;;;;5051254;28;20045;-78
2022/12/30 01:02:09;;;;;;;15.30;3.42;;;;;;;;;;5046775;28;20046;-78
2022/12/30 01:04:35;;;;;;;14.57;3.22;;;;;;;;;;5034439;28;20124;-78
2022/12/30 01:07:01;;;;;;;13.55;3.65;;;;;;;;;;5020125;28;20045;-78
2022/12/30 01:09:27;;;;;;;23.08;3.90;;;;;;;;;;5037369;28;20092;-78
2022/12/30 01:12:08;;;;;;;17.85;3.70;;;;;;;;;;5019947;28;20067;-78
2022/12/30 01:14:48;;;;;;;14.18;3.42;;;;;;;;;;5001030;28;20513;-78
2022/12/30 01:17:15;;;;;;;17.63;3.90;;;;;;;;;;5017068;28;20457;-78
2022/12/30 01:19:41;;;;;;;11.85;3.20;;;;;;;;;;5017427;28;20113;-78
2022/12/30 01:22:08;;;;;;;15.48;4.25;;;;;;;;;;5025243;28;20525;-78
2022/12/30 01:24:34;;;;;;;11.27;2.83;;;;;;;;;;5037292;28;20494;-78
2022/12/30 01:27:00;;;;;;;14.18;3.92;;;;;;;;;;5039796;28;20041;-78
2022/12/30 01:29:26;;;;;;;11.63;3.28;;;;;;;;;;5042074;28;20049;-78
2022/12/30 01:31:55;;;;;;;16.30;3.97;;;;;;;;;;5040745;28;20048;-78
2022/12/30 01:34:22;;;;;;;14.38;3.70;;;;;;;;;;5037844;28;20046;-77
2022/12/30 01:36:48;;;;;;;16.98;3.83;;;;;;;;;;5037151;28;20098;-78
2022/12/30 01:39:14;;;;;;;15.27;3.47;;;;;;;;;;5036730;28;20411;-78
2022/12/30 01:41:40;;;;;;;12.60;3.65;;;;;;;;;;5036318;28;20037;-78
2022/12/30 01:44:39;;;;;;;16.92;3.72;;;;;;;;;;5037210;28;20045;-77
2022/12/30 01:47:05;;;;;;;17.83;3.70;;;;;;;;;;4994760;28;20054;-78
2022/12/30 01:49:31;;;;;;;16.15;3.60;;;;;;;;;;4995383;28;20156;-78
2022/12/30 01:51:57;;;;;;;12.75;3.00;;;;;;;;;;4995379;28;20050;-78
2022/12/30 01:54:24;;;;;;;11.25;3.03;;;;;;;;;;4995157;28;20038;-78
2022/12/30 01:56:50;;;;;;;14.93;3.60;;;;;;;;;;4975116;28;20070;-78
2022/12/30 01:59:19;;;;;;;16.75;3.83;;;;;;;;;;4990681;28;20054;-78
2022/12/30 02:01:45;;;;;;;19.75;3.70;;;;;;;;;;4994371;28;20430;-78
2022/12/30 02:04:13;;;;;;;18.10;4.15;;;;;;;;;;4994903;28;20065;-78
2022/12/30 02:06:47;;;;;;;13.57;3.65;;;;;;;;;;4993124;28;20118;-78
2022/12/30 02:09:13;;;;;;;14.85;3.65;;;;;;;;;;4994532;28;20058;-78
2022/12/30 02:11:39;;;;;;;16.17;3.42;;;;;;;;;;4981887;28;20090;-78
2022/12/30 02:14:05;;;;;;;16.63;3.80;;;;;;;;;;4974835;28;20189;-78
2022/12/30 02:16:36;;;;;;;14.88;4.05;;;;;;;;;;4958414;28;20053;-77
2022/12/30 02:19:31;;;;;;;14.45;3.10;;;;;;;;;;4989084;28;20074;-78
2022/12/30 02:22:00;;;;;;;16.48;3.20;;;;;;;;;;4991884;28;20083;-78
2022/12/30 02:24:42;;;;;;;17.95;3.92;;;;;;;;;;5034916;28;20085;-78
2022/12/30 02:27:16;;;;;;;20.58;3.80;;;;;;;;;;5036235;28;20049;-78
2022/12/30 02:30:01;;;;;;;12.55;3.90;;;;;;;;;;5035420;28;20588;-78
2022/12/30 02:32:37;;;;;;;16.67;3.55;;;;;;;;;;5036335;28;20042;-78
2022/12/30 02:35:06;;;;;;;16.75;3.50;;;;;;;;;;5036050;28;20473;-77
2022/12/30 02:37:47;;;;;;;18.17;3.88;;;;;;;;;;5035515;28;20417;-78
2022/12/30 02:46:12;;;;;;;12.90;3.03;;;;;;;;;;5035152;28;20140;-77
2022/12/30 02:48:40;;;;;;;11.07;3.10;;;;;;;;;;5035419;28;20056;-78
2022/12/30 02:53:51;;;;;;;11.77;3.40;;;;;;;;;;5034912;28;20469;-77
2022/12/30 02:56:17;;;;;;;11.82;3.13;;;;;;;;;;5035128;28;20052;-78
2022/12/30 02:58:47;;;;;;;15.65;4.25;;;;;;;;;;5017845;28;20067;-78
2022/12/30 03:04:23;;;;;;;15.38;3.67;;;;;;;;;;5035213;28;20042;-77
2022/12/30 03:06:58;;;;;;;13.80;3.42;;;;;;;;;;5018129;28;20038;-78
2022/12/30 03:09:27;;;;;;;20.02;3.70;;;;;;;;;;5017561;28;20060;-77
2022/12/30 03:12:12;;;;;;;18.02;3.90;;;;;;;;;;5035461;28;20100;-77
2022/12/30 03:14:51;;;;;;;16.33;3.80;;;;;;;;;;5017654;28;20045;-78
2022/12/30 03:17:20;;;;;;;15.73;3.90;;;;;;;;;;5034937;28;20533;-78
2022/12/30 03:19:49;;;;;;;16.05;3.50;;;;;;;;;;5033671;28;20052;-77
2022/12/30 03:27:48;;;;;;;19.42;3.90;;;;;;;;;;5034051;28;20049;-77
2022/12/30 03:30:15;;;;;;;14.48;4.03;;;;;;;;;;5034279;28;20133;-77
2022/12/30 03:32:41;;;;;;;15.38;3.72;;;;;;;;;;5035250;28;20037;-77
2022/12/30 03:35:07;;;;;;;18.58;4.47;;;;;;;;;;5034092;28;20061;-77
2022/12/30 03:37:36;;;;;;;17.17;3.40;;;;;;;;;;5034020;28;20046;-77
2022/12/30 03:40:16;;;;;;;16.35;3.88;;;;;;;;;;5016267;28;20091;-78
2022/12/30 03:42:42;;;;;;;17.35;4.32;;;;;;;;;;5034582;28;20045;-77
2022/12/30 03:45:08;;;;;;;15.15;4.03;;;;;;;;;;5034428;28;20121;-77
2022/12/30 03:47:34;;;;;;;15.52;3.65;;;;;;;;;;5034906;28;20045;-77
2022/12/30 03:50:01;;;;;;;15.98;4.10;;;;;;;;;;5033250;28;20045;-77
2022/12/30 03:52:27;;;;;;;17.77;3.83;;;;;;;;;;5033863;28;20125;-77
2022/12/30 03:54:53;;;;;;;20.85;4.50;;;;;;;;;;5034199;28;20128;-77
2022/12/30 03:57:19;;;;;;;17.27;3.80;;;;;;;;;;5034067;28;20113;-77
2022/12/30 03:59:45;;;;;;;19.50;4.30;;;;;;;;;;5034030;28;20049;-77
2022/12/30 04:02:11;;;;;;;19.63;5.10;;;;;;;;;;5034303;28;20049;-77
2022/12/30 04:04:37;;;;;;;23.83;5.07;;;;;;;;;;5033603;28;20052;-77
2022/12/30 04:07:04;;;;;;;23.80;4.43;;;;;;;;;;5030011;28;20386;-77
2022/12/30 04:09:30;;;;;;;21.30;4.90;;;;;;;;;;4997076;28;20050;-78
2022/12/30 04:11:56;;;;;;;18.48;4.43;;;;;;;;;;5034569;28;20055;-77
2022/12/30 04:14:22;;;;;;;22.55;4.78;;;;;;;;;;5034349;28;20041;-77
2022/12/30 04:16:48;;;;;;;18.73;4.35;;;;;;;;;;5033661;28;20401;-77
2022/12/30 04:19:14;;;;;;;17.85;5.10;;;;;;;;;;5033476;28;20508;-77
2022/12/30 04:21:40;;;;;;;16.10;4.72;;;;;;;;;;5033383;28;22572;-77
2022/12/30 04:24:06;;;;;;;15.43;4.45;;;;;;;;;;5033344;28;20042;-77
2022/12/30 04:26:32;;;;;;;19.55;4.32;;;;;;;;;;5033669;28;20385;-77
2022/12/30 04:28:58;;;;;;;19.85;4.72;;;;;;;;;;5033557;28;20489;-77
2022/12/30 04:31:24;;;;;;;17.10;4.70;;;;;;;;;;5033979;28;20482;-77
2022/12/30 04:33:51;;;;;;;19.67;5.13;;;;;;;;;;5032272;28;20497;-77
2022/12/30 04:36:18;;;;;;;18.88;4.85;;;;;;;;;;5033502;28;20038;-78
2022/12/30 04:38:44;;;;;;;19.10;5.00;;;;;;;;;;5034026;28;20125;-77
2022/12/30 04:41:10;;;;;;;24.52;5.75;;;;;;;;;;5038399;28;20561;-78
2022/12/30 04:43:36;;;;;;;14.35;4.70;;;;;;;;;;5038306;28;20042;-77
2022/12/30 04:46:02;;;;;;;16.95;5.70;;;;;;;;;;5016717;28;20057;-77
2022/12/30 04:48:28;;;;;;;24.95;6.18;;;;;;;;;;5034450;28;20048;-76
2022/12/30 04:50:54;;;;;;;22.38;5.57;;;;;;;;;;5033391;28;20052;-77
2022/12/30 04:53:20;;;;;;;17.58;6.38;;;;;;;;;;5032571;28;20125;-77
2022/12/30 04:55:51;;;;;;;20.55;5.90;;;;;;;;;;5033451;28;20183;-77
2022/12/30 04:58:17;;;;;;;18.30;5.70;;;;;;;;;;5053564;28;20072;-76
2022/12/30 05:00:43;;;;;;;18.80;5.40;;;;;;;;;;5053641;28;20079;-76
2022/12/30 05:03:09;;;;;;;23.45;6.07;;;;;;;;;;5043342;28;20052;-77
2022/12/30 05:05:35;;;;;;;18.35;5.90;;;;;;;;;;5013510;28;20061;-77
2022/12/30 05:08:01;;;;;;;16.02;5.70;;;;;;;;;;5021856;28;20052;-77
2022/12/30 05:10:27;;;;;;;18.42;6.32;;;;;;;;;;5031494;28;20409;-77
2022/12/30 05:12:53;;;;;;;14.90;6.80;;;;;;;;;;5033314;28;20045;-77
2022/12/30 05:15:20;;;;;;;25.17;7.93;;;;;;;;;;5015140;28;20049;-77
2022/12/30 05:17:46;;;;;;;24.05;7.85;;;;;;;;;;5033139;28;20096;-77
2022/12/30 05:20:12;;;;;;;21.98;8.82;;;;;;;;;;5033414;28;20481;-77
2022/12/30 05:22:38;;;;;;;21.92;8.60;;;;;;;;;;5033080;28;20100;-77
2022/12/30 05:27:48;;;;;;;15.70;7.30;;;;;;;;;;5013348;28;20050;-77
2022/12/30 05:30:15;;;;;;;19.95;8.23;;;;;;;;;;5005436;28;20053;-77
2022/12/30 05:32:41;;;;;;;21.90;7.30;;;;;;;;;;5033048;28;20056;-77
2022/12/30 05:35:07;;;;;;;15.32;7.72;;;;;;;;;;5032639;28;20037;-77
2022/12/30 05:37:33;;;;;;;19.50;7.38;;;;;;;;;;5014343;28;20056;-77
2022/12/30 05:39:59;;;;;;;16.73;6.63;;;;;;;;;;5032763;28;20045;-77
2022/12/30 05:42:25;;;;;;;19.50;7.03;;;;;;;;;;5032375;28;20502;-77
2022/12/30 05:44:51;;;;;;;17.90;7.13;;;;;;;;;;5033235;28;20049;-77
2022/12/30 05:47:17;;;;;;;16.33;7.70;;;;;;;;;;5032511;28;20211;-77
2022/12/30 05:49:43;;;;;;;19.50;7.63;;;;;;;;;;5033065;28;20378;-77
2022/12/30 05:52:09;;;;;;;21.55;8.35;;;;;;;;;;5032548;28;20045;-77
2022/12/30 05:54:35;;;;;;;23.52;9.43;;;;;;;;;;5036680;28;20050;-77
2022/12/30 05:57:01;;;;;;;18.85;9.00;;;;;;;;;;5036363;28;20044;-77
2022/12/30 05:59:27;;;;;;;19.75;7.80;;;;;;;;;;5018830;28;20049;-77
2022/12/30 06:01:53;;;;;;;16.73;7.03;;;;;;;;;;5036482;28;20131;-77
2022/12/30 06:04:19;;;;;;;12.05;6.72;;;;;;;;;;5036178;28;20042;-77
2022/12/30 06:06:45;;;;;;;15.48;6.47;;;;;;;;;;5035835;28;20482;-77
2022/12/30 06:09:11;;;;;;;13.57;6.65;;;;;;;;;;5016766;28;20073;-77
2022/12/30 06:11:38;;;;;;;17.73;8.43;;;;;;;;;;5017805;28;20040;-77
2022/12/30 06:14:04;;;;;;;15.60;6.68;;;;;;;;;;5035915;28;20045;-77
2022/12/30 06:16:30;;;;;;;19.17;7.00;;;;;;;;;;5035671;28;20132;-77
2022/12/30 06:18:56;;;;;;;15.32;6.68;;;;;;;;;;5035990;28;20049;-77
2022/12/30 06:21:22;;;;;;;13.27;6.40;;;;;;;;;;5035298;28;20449;-77
2022/12/30 06:23:48;;;;;;;14.10;6.43;;;;;;;;;;5036315;28;20037;-77
2022/12/30 06:26:14;;;;;;;15.35;6.50;;;;;;;;;;5036100;28;20049;-77
2022/12/30 06:28:40;;;;;;;19.42;6.28;;;;;;;;;;5035999;28;20493;-77
2022/12/30 06:31:06;;;;;;;17.67;7.15;;;;;;;;;;5035943;28;20046;-77
2022/12/30 06:33:32;;;;;;;16.50;6.70;;;;;;;;;;5036153;28;20041;-77
2022/12/30 06:35:58;;;;;;;14.75;6.15;;;;;;;;;;5034852;28;20049;-77
2022/12/30 06:38:24;;;;;;;14.30;5.32;;;;;;;;;;5035047;28;20049;-77
2022/12/30 06:40:56;;;;;;;14.98;4.38;;;;;;;;;;5035557;28;20120;-77
2022/12/30 06:43:22;;;;;;;16.55;4.70;;;;;;;;;;5035242;28;20041;-77
2022/12/30 06:45:48;;;;;;;14.70;4.57;;;;;;;;;;5035478;28;20053;-77
2022/12/30 06:48:14;;;;;;;21.27;5.47;;;;;;;;;;5035541;28;20049;-77
2022/12/30 06:50:40;;;;;;;17.95;5.35;;;;;;;;;;5035735;28;20126;-78
2022/12/30 06:53:07;;;;;;;16.70;4.88;;;;;;;;;;5027026;28;20048;-78
2022/12/30 06:55:33;;;;;;;10.95;4.80;;;;;;;;;;5035917;28;20045;-78
2022/12/30 06:57:59;;;;;;;11.43;4.00;;;;;;;;;;5017975;28;20132;-79
2022/12/30 07:00:25;;;;;;;11.82;5.18;;;;;;;;;;5016865;28;20124;-78
2022/12/30 07:02:51;;;;;;;18.58;5.25;;;;;;;;;;5017807;28;20053;-77
2022/12/30 07:05:17;;;;;;;14.15;4.70;;;;;;;;;;5035090;28;20103;-77
2022/12/30 07:07:43;;;;;;;15.55;5.28;;;;;;;;;;5034557;28;20041;-77
2022/12/30 07:10:09;;;;;;;12.85;5.07;;;;;;;;;;5034728;28;20151;-77
2022/12/30 07:12:35;;;;;;;18.10;5.70;;;;;;;;;;5032533;28;20047;-77
2022/12/30 07:15:01;;;;;;;12.20;5.60;;;;;;;;;;5030896;28;20037;-77
2022/12/30 07:17:28;;;;;;;13.35;5.53;;;;;;;;;;5016591;28;20053;-77
2022/12/30 07:19:54;;;;;;;14.55;5.78;;;;;;;;;;5034553;28;20049;-77
2022/12/30 07:22:20;;;;;;;11.98;5.07;;;;;;;;;;5034328;28;20057;-77
2022/12/30 07:24:47;;;;;;;13.23;5.25;;;;;;;;;;5033138;28;20045;-77
2022/12/30 07:27:16;;;;;;;15.68;5.43;;;;;;;;;;5034282;28;20072;-77
2022/12/30 07:29:42;;;;;;;19.92;5.88;;;;;;;;;;5024517;28;20128;-77
2022/12/30 07:32:10;;;;;;;15.35;5.05;;;;;;;;;;5034634;28;20386;-77
2022/12/30 07:34:39;;;;;;;17.75;5.85;;;;;;;;;;5034464;28;20045;-77
2022/12/30 07:37:05;;;;;;;19.05;6.85;;;;;;;;;;5034558;28;20551;-80
2022/12/30 07:39:31;;;;;;;15.43;5.50;;;;;;;;;;5004757;28;20056;-77
2022/12/30 07:42:15;;;;;;;11.88;4.63;;;;;;;;;;5034103;28;20488;-77
2022/12/30 07:44:41;;;;;;;12.30;5.30;;;;;;;;;;5034484;28;20489;-77
2022/12/30 07:47:10;;;;;;;13.30;4.75;;;;;;;;;;5034391;28;20041;-77
2022/12/30 07:49:36;;;;;;;15.45;4.95;;;;;;;;;;5034217;28;20051;-77
2022/12/30 07:52:07;;;;;;;12.90;5.10;;;;;;;;;;5034073;28;20385;-77
2022/12/30 07:54:33;;;;;;;10.68;4.32;;;;;;;;;;4988731;28;20477;-77
2022/12/30 07:56:59;;;;;;;10.65;4.63;;;;;;;;;;5038464;28;20493;-77
2022/12/30 07:59:25;;;;;;;14.07;4.80;;;;;;;;;;5017921;28;20370;-77
2022/12/30 08:01:51;;;;;;;12.93;4.57;;;;;;;;;;5034510;28;20072;-77
2022/12/30 08:04:17;;;;;;;12.35;4.57;;;;;;;;;;5016451;28;20046;-77
2022/12/30 08:06:45;;;;;;;13.90;4.38;;;;;;;;;;5032727;28;20040;-77
2022/12/30 08:09:11;;;;;;;13.65;4.55;;;;;;;;;;5016544;28;20049;-77
2022/12/30 08:11:38;;;;;;;16.70;5.60;;;;;;;;;;5033094;28;20049;-77
2022/12/30 08:14:04;;;;;;;13.00;4.95;;;;;;;;;;5033802;28;20049;-79
2022/12/30 08:16:30;;;;;;;12.48;4.05;;;;;;;;;;5035553;28;20123;-82
2022/12/30 08:18:56;;;;;;;10.48;4.45;;;;;;;;;;5036710;28;20053;-79
2022/12/30 08:21:22;;;;;;;15.18;4.13;;;;;;;;;;5035159;28;20045;-78
2022/12/30 08:23:48;;;;;;;10.55;4.32;;;;;;;;;;5033092;28;20048;-77
2022/12/30 08:26:16;;;;;;;13.32;4.38;;;;;;;;;;5034760;28;20049;-78
2022/12/30 08:28:43;;;;;;;18.52;4.60;;;;;;;;;;5034019;28;20088;-78
2022/12/30 08:31:10;;;;;;;10.57;3.90;;;;;;;;;;5033754;28;20551;-77
2022/12/30 08:33:37;;;;;;;13.35;4.53;;;;;;;;;;5033711;28;20094;-77
2022/12/30 08:36:04;;;;;;;15.10;4.78;;;;;;;;;;5033638;28;20042;-77
2022/12/30 08:38:30;;;;;;;15.05;4.13;;;;;;;;;;5033579;28;20041;-79
2022/12/30 08:41:03;;;;;;;15.13;3.92;;;;;;;;;;5015704;28;20052;-77
2022/12/30 08:43:29;;;;;;;11.68;3.90;;;;;;;;;;5033906;28;20049;-77
2022/12/30 08:45:56;;;;;;;14.00;4.60;;;;;;;;;;5032937;28;20053;-77
2022/12/30 08:48:22;;;;;;;12.50;4.03;;;;;;;;;;5033082;28;20049;-77
2022/12/30 08:50:48;;;;;;;15.63;4.20;;;;;;;;;;5019578;28;20048;-77
2022/12/30 08:53:14;;;;;;;13.15;4.10;;;;;;;;;;5015576;28;20052;-77
2022/12/30 08:55:40;;;;;;;11.95;4.30;;;;;;;;;;5015312;28;20389;-78
2022/12/30 08:58:06;;;;;;;13.00;4.38;;;;;;;;;;5029204;28;20493;-77
2022/12/30 09:00:32;;;;;;;17.23;4.68;;;;;;;;;;4987000;28;20065;-77
2022/12/30 09:02:58;;;;;;;13.27;4.60;;;;;;;;;;5024001;28;20413;-77
2022/12/30 09:05:24;;;;;;;17.45;4.05;;;;;;;;;;5033538;28;20524;-77
2022/12/30 09:07:50;;;;;;;16.98;3.92;;;;;;;;;;4999071;28;20072;-80
2022/12/30 09:10:17;;;;;;;11.85;4.15;;;;;;;;;;5029363;28;20497;-79
2022/12/30 09:12:43;;;;;;;12.80;3.60;;;;;;;;;;5004460;28;20061;-77
2022/12/30 09:15:09;;;;;;;12.15;3.60;;;;;;;;;;5032516;28;20045;-77
2022/12/30 09:17:35;;;;;;;12.18;3.75;;;;;;;;;;5031530;28;20461;-77
2022/12/30 09:20:01;;;;;;;15.18;3.67;;;;;;;;;;5031659;28;20482;-77
2022/12/30 09:22:27;;;;;;;13.25;4.53;;;;;;;;;;5032638;28;20421;-77
2022/12/30 09:24:53;;;;;;;12.65;3.70;;;;;;;;;;5028376;28;20513;-77
2022/12/30 09:27:19;;;;;;;15.90;4.65;;;;;;;;;;5034657;28;20504;-77
2022/12/30 09:29:45;;;;;;;10.27;3.38;;;;;;;;;;5033479;28;20045;-77
2022/12/30 09:32:11;;;;;;;12.73;3.85;;;;;;;;;;5036668;28;20461;-77
2022/12/30 09:34:37;;;;;;;12.52;4.28;;;;;;;;;;5036741;28;20424;-77
2022/12/30 09:37:03;;;;;;;17.80;4.57;;;;;;;;;;5036983;28;20120;-77
2022/12/30 09:39:32;;;;;;;11.70;3.95;;;;;;;;;;5036624;28;20122;-77
2022/12/30 09:44:47;;;;;;;12.77;4.20;;;;;;;;;;5035507;28;20052;-76
2022/12/30 09:47:13;;;;;;;9.88;3.63;;;;;;;;;;5034552;28;20037;-77
2022/12/30 09:49:52;;;;;;;12.50;3.88;;;;;;;;;;5035725;28;20046;-77
2022/12/30 09:52:24;;;;;;;13.57;4.50;;;;;;;;;;5036892;28;20425;-76
2022/12/30 09:54:53;;;;;;;12.65;3.72;;;;;;;;;;5036354;28;20046;-79
2022/12/30 09:57:32;;;;;;;11.93;4.28;;;;;;;;;;5036332;28;20183;-77
2022/12/30 10:00:12;;;;;;;10.40;4.68;;;;;;;;;;5036054;28;20508;-77
2022/12/30 10:02:57;;;;;;;13.30;4.25;;;;;;;;;;5031373;28;20052;-77
2022/12/30 10:05:32;;;;;;;12.10;4.82;;;;;;;;;;5032191;28;20168;-77
2022/12/30 10:08:05;;;;;;;9.63;4.38;;;;;;;;;;5036262;28;20045;-77
2022/12/30 10:10:35;;;;;;;10.25;4.63;;;;;;;;;;5022621;28;20095;-77
2022/12/30 10:13:07;;;;;;;8.73;4.20;;;;;;;;;;5025156;28;20558;-77
2022/12/30 10:15:43;;;;;;;11.30;4.10;;;;;;;;;;5035883;28;20505;-77
2022/12/30 10:18:32;;;;;;;11.63;4.10;;;;;;;;;;5022894;28;20058;-78
2022/12/30 10:21:17;;;;;;;11.05;3.90;;;;;;;;;;5035488;28;20048;-77
2022/12/30 10:23:52;;;;;;;11.93;4.85;;;;;;;;;;5035808;28;20072;-78
2022/12/30 10:26:24;;;;;;;11.75;4.75;;;;;;;;;;5036173;28;20041;-77
2022/12/30 10:29:04;;;;;;;9.68;4.68;;;;;;;;;;5035877;28;20112;-78
2022/12/30 10:31:33;;;;;;;18.65;4.45;;;;;;;;;;5036101;28;20061;-78
2022/12/30 10:34:05;;;;;;;10.77;3.60;;;;;;;;;;5036031;28;20037;-77
2022/12/30 10:36:36;;;;;;;10.38;4.00;;;;;;;;;;5033797;28;20049;-78
2022/12/30 10:39:11;;;;;;;11.70;4.03;;;;;;;;;;5016205;28;20114;-77
2022/12/30 10:41:47;;;;;;;11.13;3.85;;;;;;;;;;5022728;28;20076;-78
2022/12/30 10:44:13;;;;;;;10.55;3.95;;;;;;;;;;5035743;28;20434;-78
2022/12/30 10:46:58;;;;;;;8.80;3.72;;;;;;;;;;5035331;28;20530;-78
2022/12/30 10:49:29;;;;;;;16.35;4.05;;;;;;;;;;5036063;28;20045;-78
2022/12/30 10:51:56;;;;;;;10.85;3.60;;;;;;;;;;5036023;28;20042;-79
2022/12/30 10:54:22;;;;;;;8.10;4.03;;;;;;;;;;5036442;28;20124;-78
2022/12/30 10:56:49;;;;;;;8.82;3.78;;;;;;;;;;5036001;28;20046;-78
2022/12/30 10:59:20;;;;;;;9.48;3.65;;;;;;;;;;5029268;28;20142;-77
2022/12/30 11:01:47;;;;;;;10.02;4.07;;;;;;;;;;5027655;28;20095;-77
2022/12/30 11:04:33;;;;;;;9.68;3.70;;;;;;;;;;5017441;28;20049;-77
2022/12/30 11:07:00;;;;;;;5.95;3.53;;;;;;;;;;5035306;28;20135;-77
2022/12/30 11:09:26;;;;;;;11.73;3.92;;;;;;;;;;5034971;28;20203;-77
2022/12/30 11:14:45;;;;;;;10.93;3.72;;;;;;;;;;5025616;28;20042;-77
2022/12/30 11:17:17;;;;;;;6.45;3.33;;;;;;;;;;5039787;28;20084;-77
2022/12/30 11:19:44;;;;;;;11.32;4.15;;;;;;;;;;5035098;28;20046;-77
2022/12/30 11:22:10;;;;;;;10.20;4.07;;;;;;;;;;5017419;28;20041;-77
2022/12/30 11:24:37;;;;;;;9.75;3.30;;;;;;;;;;5016849;28;20049;-77
2022/12/30 11:27:03;;;;;;;11.27;3.55;;;;;;;;;;5036844;28;20045;-76
2022/12/30 11:29:32;;;;;;;10.63;4.03;;;;;;;;;;5030150;28;20473;-77
2022/12/30 11:31:58;;;;;;;11.85;3.78;;;;;;;;;;5035340;28;20124;-77
2022/12/30 11:34:32;;;;;;;7.00;3.47;;;;;;;;;;5035467;28;20073;-77
2022/12/30 11:36:59;;;;;;;8.35;3.03;;;;;;;;;;5033222;28;20037;-77
2022/12/30 11:39:25;;;;;;;9.73;3.80;;;;;;;;;;5034507;28;20489;-77
2022/12/30 11:41:56;;;;;;;10.65;3.80;;;;;;;;;;5034353;28;20056;-77
2022/12/30 11:44:32;;;;;;;13.60;3.78;;;;;;;;;;5030950;28;20120;-79
2022/12/30 11:47:06;;;;;;;5.15;3.30;;;;;;;;;;5011078;28;20100;-77
2022/12/30 11:49:46;;;;;;;9.25;4.25;;;;;;;;;;5033456;28;20069;-77
2022/12/30 11:52:16;;;;;;;7.35;3.22;;;;;;;;;;5034441;28;20045;-77
2022/12/30 11:54:44;;;;;;;8.07;3.28;;;;;;;;;;5034503;28;20056;-77
2022/12/30 11:57:21;;;;;;;9.95;3.47;;;;;;;;;;5034173;28;20125;-77
2022/12/30 11:59:58;;;;;;;7.80;3.15;;;;;;;;;;5026916;28;20045;-77
2022/12/30 12:02:27;;;;;;;6.55;3.17;;;;;;;;;;5027230;28;20126;-77
2022/12/30 12:04:54;;;;;;;7.13;3.17;;;;;;;;;;5025415;28;20120;-77
2022/12/30 12:07:30;;;;;;;9.13;3.50;;;;;;;;;;5034125;28;20042;-77
2022/12/30 12:10:05;;;;;;;7.53;3.10;;;;;;;;;;5033853;28;20402;-77
2022/12/30 12:12:38;;;;;;;5.60;3.03;;;;;;;;;;5021281;28;20462;-77
2022/12/30 12:15:07;;;;;;;6.78;2.70;;;;;;;;;;5014889;28;20476;-77
2022/12/30 12:17:36;;;;;;;4.80;2.50;;;;;;;;;;5033481;28;20060;-77
2022/12/30 12:20:25;;;;;;;5.90;3.17;;;;;;;;;;5033857;28;20453;-77
2022/12/30 12:23:07;;;;;;;7.05;2.97;;;;;;;;;;5025915;28;20133;-77
2022/12/30 12:25:42;;;;;;;6.22;2.83;;;;;;;;;;5021082;28;20517;-77
2022/12/30 12:28:12;;;;;;;8.52;2.70;;;;;;;;;;5032987;28;20049;-77
2022/12/30 12:30:44;;;;;;;8.77;2.80;;;;;;;;;;5031334;28;20363;-77
2022/12/30 12:33:13;;;;;;;5.03;2.38;;;;;;;;;;5020439;28;20046;-77
2022/12/30 12:35:45;;;;;;;9.82;3.13;;;;;;;;;;5034332;28;20479;-77
2022/12/30 12:38:20;;;;;;;5.78;2.88;;;;;;;;;;5032854;28;20041;-77
2022/12/30 12:40:53;;;;;;;5.68;2.60;;;;;;;;;;5033468;28;20044;-77
2022/12/30 12:43:26;;;;;;;4.60;2.40;;;;;;;;;;5019490;28;20084;-77
2022/12/30 12:46:04;;;;;;;6.30;2.42;;;;;;;;;;5030229;28;20042;-77
2022/12/30 12:48:43;;;;;;;5.00;2.20;;;;;;;;;;5015624;28;20045;-77
2022/12/30 12:51:09;;;;;;;6.28;2.60;;;;;;;;;;5033525;28;20040;-77
2022/12/30 12:53:35;;;;;;;8.05;2.50;;;;;;;;;;5033397;28;20041;-77
2022/12/30 12:56:20;;;;;;;7.72;2.95;;;;;;;;;;5027420;28;20046;-77
2022/12/30 12:58:58;;;;;;;5.03;2.70;;;;;;;;;;5006578;28;20445;-77
2022/12/30 13:01:43;;;;;;;7.30;2.78;;;;;;;;;;5014695;28;20104;-77
2022/12/30 13:04:18;;;;;;;7.35;2.55;;;;;;;;;;5012378;28;20052;-78
2022/12/30 13:06:59;;;;;;;5.80;2.42;;;;;;;;;;5015218;28;20382;-78
2022/12/30 13:09:34;;;;;;;6.85;2.20;;;;;;;;;;5033161;28;20085;-78
2022/12/30 13:12:19;;;;;;;6.18;2.20;;;;;;;;;;5015874;28;20054;-78
2022/12/30 13:14:47;;;;;;;7.43;2.30;;;;;;;;;;5024516;28;20046;-77
2022/12/30 13:17:16;;;;;;;5.25;2.10;;;;;;;;;;5019509;28;20054;-78
2022/12/30 13:19:44;;;;;;;5.75;3.00;;;;;;;;;;5032686;28;20520;-78
2022/12/30 13:22:13;;;;;;;7.93;2.25;;;;;;;;;;5015965;28;20124;-79
2022/12/30 13:24:42;;;;;;;5.10;2.30;;;;;;;;;;5032880;28;20038;-77
2022/12/30 13:27:12;;;;;;;6.20;2.25;;;;;;;;;;5015860;28;20154;-76
2022/12/30 13:29:39;;;;;;;8.35;2.50;;;;;;;;;;5027804;28;20052;-78
2022/12/30 13:32:07;;;;;;;7.57;2.10;;;;;;;;;;5033278;28;20041;-77
2022/12/30 13:34:40;;;;;;;5.72;2.40;;;;;;;;;;5025228;28;20038;-76
2022/12/30 13:37:06;;;;;;;5.28;2.35;;;;;;;;;;5026269;28;20033;-76
2022/12/30 13:39:38;;;;;;;4.60;2.10;;;;;;;;;;5014289;28;20497;-77
2022/12/30 13:42:23;;;;;;;5.88;2.63;;;;;;;;;;5015248;28;20382;-77
2022/12/30 13:44:49;;;;;;;5.13;2.33;;;;;;;;;;5004539;28;20045;-77
2022/12/30 13:47:22;;;;;;;7.18;2.63;;;;;;;;;;5012373;28;20038;-77
2022/12/30 13:49:48;;;;;;;4.63;2.20;;;;;;;;;;5022789;28;20046;-77
2022/12/30 13:52:25;;;;;;;5.00;2.33;;;;;;;;;;5015385;28;20042;-77
2022/12/30 13:54:52;;;;;;;4.60;2.08;;;;;;;;;;5032507;28;20509;-77
2022/12/30 13:57:47;;;;;;;7.75;2.25;;;;;;;;;;5030992;28;20037;-77
2022/12/30 14:00:20;;;;;;;6.97;2.40;;;;;;;;;;5003724;28;20532;-77
2022/12/30 14:02:47;;;;;;;5.20;2.50;;;;;;;;;;5022732;28;20058;-76
2022/12/30 14:05:34;;;;;;;6.82;2.60;;;;;;;;;;5021781;28;20053;-76
2022/12/30 14:08:00;;;;;;;7.45;2.53;;;;;;;;;;5020214;28;20054;-76
2022/12/30 14:10:39;;;;;;;4.93;2.15;;;;;;;;;;4997844;28;20045;-77
2022/12/30 14:13:37;;;;;;;7.70;2.17;;;;;;;;;;5030377;28;20121;-77
2022/12/30 14:16:06;;;;;;;5.60;2.20;;;;;;;;;;4991008;28;20165;-77
2022/12/30 14:18:37;;;;;;;8.68;2.40;;;;;;;;;;4978333;28;20038;-77
2022/12/30 14:21:04;;;;;;;8.27;2.67;;;;;;;;;;4994898;28;20042;-77
2022/12/30 14:23:38;;;;;;;6.70;2.30;;;;;;;;;;4998603;28;20078;-77
2022/12/30 14:26:27;;;;;;;5.57;2.30;;;;;;;;;;5013814;28;20050;-77
2022/12/30 14:28:57;;;;;;;4.97;2.10;;;;;;;;;;4992949;28;20376;-77
2022/12/30 14:31:25;;;;;;;5.28;2.55;;;;;;;;;;5003922;28;20061;-77
2022/12/30 14:33:52;;;;;;;5.20;2.30;;;;;;;;;;4999509;28;20132;-77
2022/12/30 14:36:20;;;;;;;4.63;2.13;;;;;;;;;;4999273;28;20042;-78
2022/12/30 14:38:49;;;;;;;6.65;2.20;;;;;;;;;;5009765;28;20077;-77
2022/12/30 14:41:23;;;;;;;6.43;2.30;;;;;;;;;;4997494;28;20038;-79
2022/12/30 14:44:00;;;;;;;3.42;1.95;;;;;;;;;;5014331;28;20134;-77
2022/12/30 14:46:40;;;;;;;3.50;2.40;;;;;;;;;;4977028;28;20050;-77
2022/12/30 14:49:15;;;;;;;5.78;2.35;;;;;;;;;;4998344;28;20443;-76
2022/12/30 14:51:45;;;;;;;6.18;2.55;;;;;;;;;;5021932;28;20494;-77
2022/12/30 14:54:16;;;;;;;4.05;1.80;;;;;;;;;;5017869;28;20095;-83
2022/12/30 14:56:52;;;;;;;5.82;2.05;;;;;;;;;;5036003;28;20457;-77
2022/12/30 14:59:19;;;;;;;4.35;2.00;;;;;;;;;;5036017;28;20124;-81
2022/12/30 15:02:05;;;;;;;2.75;1.80;;;;;;;;;;5036801;28;20042;-79
2022/12/30 15:04:31;;;;;;;5.45;2.10;;;;;;;;;;5035737;28;20045;-77
2022/12/30 15:06:57;;;;;;;4.55;2.10;;;;;;;;;;5035581;28;20049;-80
2022/12/30 15:09:26;;;;;;;5.88;2.17;;;;;;;;;;5024882;28;20041;-77
2022/12/30 15:11:55;;;;;;;5.35;2.40;;;;;;;;;;5035185;28;20041;-77
2022/12/30 15:14:22;;;;;;;4.07;2.15;;;;;;;;;;5035745;28;20623;-77
2022/12/30 15:17:04;;;;;;;4.93;2.30;;;;;;;;;;5045819;28;20128;-80
2022/12/30 15:19:30;;;;;;;4.82;2.28;;;;;;;;;;5030301;28;20077;-77
2022/12/30 15:21:57;;;;;;;6.72;2.33;;;;;;;;;;5035104;28;20490;-77
2022/12/30 15:24:25;;;;;;;6.07;2.70;;;;;;;;;;5034864;28;20168;-77
2022/12/30 15:26:55;;;;;;;4.18;2.47;;;;;;;;;;5030404;28;20041;-77
2022/12/30 15:29:34;;;;;;;4.75;2.42;;;;;;;;;;5032221;28;20045;-77
2022/12/30 15:32:02;;;;;;;5.53;3.22;;;;;;;;;;5027421;28;20516;-77
2022/12/30 15:34:32;;;;;;;4.55;2.55;;;;;;;;;;5033703;28;20049;-77
2022/12/30 15:37:00;;;;;;;7.07;2.40;;;;;;;;;;5033767;28;20040;-77
2022/12/30 15:39:28;;;;;;;5.53;2.90;;;;;;;;;;5030866;28;20041;-77
2022/12/30 15:41:55;;;;;;;6.18;2.60;;;;;;;;;;5033875;28;20156;-77
2022/12/30 15:44:21;;;;;;;5.13;2.95;;;;;;;;;;5033599;28;20053;-77